createdAt,value
2018-11-01T00:14:09.670Z,6.86
2018-11-01T00:19:30.761Z,6.93
2018-11-01T00:22:13.394Z,6.91
2018-11-01T00:29:19.574Z,6.97
2018-11-01T00:31:47.676Z,7.06
2018-11-01T00:34:15.825Z,7.04
2018-11-01T00:36:43.926Z,7.07
2018-11-01T00:39:13.274Z,7.10
2018-11-01T00:41:41.424Z,7.11
2018-11-01T00:44:09.661Z,7.11
2018-11-01T00:46:37.755Z,7.10
2018-11-01T00:49:05.815Z,7.06
2018-11-01T00:51:34.194Z,7.08
2018-11-01T00:54:02.267Z,7.09
2018-11-01T00:56:30.536Z,7.13
2018-11-01T00:58:58.735Z,7.23
2018-11-01T01:01:26.843Z,7.23
2018-11-01T01:03:54.962Z,7.20
2018-11-01T01:06:23.090Z,7.23
2018-11-01T01:08:51.206Z,7.19
2018-11-01T01:11:19.290Z,7.22
2018-11-01T02:17:28.205Z,7.07
2018-11-01T03:25:55.567Z,6.53
2018-11-01T04:19:46.308Z,5.86
2018-11-01T04:28:08.419Z,5.83
2018-11-01T04:30:36.598Z,5.79
2018-11-01T04:33:04.954Z,5.84
2018-11-01T04:35:33.000Z,5.85
2018-11-01T04:38:01.114Z,5.79
2018-11-01T04:40:29.313Z,5.77
2018-11-01T04:42:57.510Z,5.75
2018-11-01T04:45:25.518Z,5.84
2018-11-01T04:47:53.821Z,5.80
2018-11-01T04:50:21.804Z,5.78
2018-11-01T04:52:49.908Z,5.77
2018-11-01T04:55:17.989Z,5.77
2018-11-01T04:57:46.121Z,5.87
2018-11-01T05:00:14.781Z,5.86
2018-11-01T05:02:43.445Z,5.89
2018-11-01T05:05:11.710Z,5.83
2018-11-01T05:07:39.802Z,5.81
2018-11-01T05:10:09.043Z,5.86
2018-11-01T05:12:37.498Z,5.92
2018-11-01T05:15:05.906Z,5.86
2018-11-01T05:17:33.997Z,5.78
2018-11-01T05:20:02.082Z,5.63
2018-11-01T05:31:27.729Z,5.89
2018-11-01T05:33:55.842Z,6.05
2018-11-01T05:36:23.923Z,5.97
2018-11-01T05:38:52.029Z,5.88
2018-11-01T05:41:20.132Z,6.02
2018-11-01T05:43:48.259Z,6.08
2018-11-01T05:46:16.330Z,5.77
2018-11-01T05:48:44.443Z,5.74
2018-11-01T05:51:12.580Z,5.57
2018-11-01T05:53:40.693Z,5.48
2018-11-01T05:56:08.789Z,5.62
2018-11-01T05:58:36.865Z,5.54
2018-11-01T06:01:06.955Z,5.48
2018-11-01T06:03:35.074Z,5.42
2018-11-01T06:06:03.177Z,5.61
2018-11-01T06:08:34.816Z,5.64
2018-11-01T06:11:02.928Z,5.61
2018-11-01T06:16:23.469Z,5.67
2018-11-01T06:18:51.569Z,5.70
2018-11-01T06:21:19.683Z,5.55
2018-11-01T06:27:03.370Z,5.50
2018-11-01T06:29:31.494Z,5.46
2018-11-01T06:31:59.595Z,5.45
2018-11-01T06:34:35.646Z,5.57
2018-11-01T06:37:03.771Z,5.54
2018-11-01T06:39:31.873Z,5.56
2018-11-01T06:41:59.943Z,5.65
2018-11-01T06:44:28.057Z,5.61
2018-11-01T06:46:56.174Z,5.61
2018-11-01T06:49:24.291Z,5.66
2018-11-01T06:51:52.386Z,5.68
2018-11-01T06:54:20.515Z,5.65
2018-11-01T06:56:48.655Z,5.81
2018-11-01T06:59:17.030Z,5.84
2018-11-01T07:01:44.962Z,5.98
2018-11-01T07:04:13.142Z,6.07
2018-11-01T07:06:41.275Z,6.13
2018-11-01T07:09:11.330Z,6.24
2018-11-01T07:11:39.495Z,6.35
2018-11-01T08:23:30.973Z,11.56
2018-11-01T08:25:59.076Z,11.40
2018-11-01T09:19:43.413Z,11.68
2018-11-01T12:14:49.220Z,12.13
2018-11-01T12:17:17.329Z,12.07
2018-11-01T13:13:47.256Z,11.46
2018-11-01T13:16:15.370Z,11.41
2018-11-01T13:18:43.480Z,11.19
2018-11-01T13:21:11.579Z,11.15
2018-11-01T13:23:39.682Z,11.05
2018-11-01T13:29:00.632Z,11.07
2018-11-01T13:31:28.704Z,11.03
2018-11-01T13:33:56.796Z,11.07
2018-11-01T13:36:24.894Z,10.98
2018-11-01T13:38:52.981Z,10.98
2018-11-01T13:41:21.179Z,10.88
2018-11-01T13:43:49.203Z,10.88
2018-11-01T13:46:17.309Z,10.96
2018-11-01T13:48:45.467Z,10.95
2018-11-01T13:51:13.547Z,10.79
2018-11-01T13:53:41.634Z,10.78
2018-11-01T13:56:09.783Z,10.69
2018-11-01T13:58:37.924Z,10.71
2018-11-01T14:01:06.542Z,10.71
2018-11-01T14:03:34.638Z,10.64
2018-11-01T14:06:02.814Z,10.64
2018-11-01T14:08:30.861Z,10.60
2018-11-01T14:10:58.992Z,10.52
2018-11-01T15:14:13.261Z,9.99
2018-11-01T15:16:41.359Z,9.92
2018-11-01T15:19:09.795Z,9.88
2018-11-01T15:21:38.074Z,9.83
2018-11-01T15:32:53.279Z,9.77
2018-11-01T15:35:21.347Z,9.83
2018-11-01T15:37:49.409Z,9.79
2018-11-01T15:40:17.520Z,9.72
2018-11-01T15:42:45.669Z,9.67
2018-11-01T15:45:14.474Z,9.78
2018-11-01T15:47:43.009Z,9.74
2018-11-01T15:50:12.211Z,9.77
2018-11-01T15:52:40.299Z,9.73
2018-11-01T15:55:08.756Z,9.65
2018-11-01T15:57:37.127Z,9.66
2018-11-01T16:00:05.533Z,9.67
2018-11-01T16:02:33.700Z,9.67
2018-11-01T16:05:01.781Z,9.67
2018-11-01T16:07:29.909Z,9.63
2018-11-01T16:09:58.056Z,9.51
2018-11-01T16:12:26.156Z,9.63
2018-11-01T16:29:36.384Z,9.46
2018-11-01T16:32:04.537Z,9.48
2018-11-01T16:34:32.709Z,9.44
2018-11-01T16:37:00.882Z,9.44
2018-11-01T16:39:28.898Z,9.45
2018-11-01T16:41:57.021Z,9.49
2018-11-01T16:44:25.118Z,9.44
2018-11-01T16:46:53.234Z,9.41
2018-11-01T16:49:21.315Z,9.38
2018-11-01T16:51:49.418Z,9.43
2018-11-01T16:54:17.581Z,9.43
2018-11-01T16:56:45.665Z,9.43
2018-11-01T16:59:13.792Z,9.42
2018-11-01T17:01:41.881Z,9.37
2018-11-01T17:04:09.966Z,9.45
2018-11-01T17:06:38.104Z,9.39
2018-11-01T17:09:08.566Z,9.35
2018-11-01T17:11:36.626Z,9.37
2018-11-01T17:14:04.807Z,9.34
2018-11-01T17:16:32.875Z,9.31
2018-11-01T18:29:11.597Z,9.25
2018-11-01T18:31:39.761Z,9.28
2018-11-01T18:34:07.881Z,9.33
2018-11-01T18:36:35.991Z,9.26
2018-11-01T18:39:05.168Z,9.33
2018-11-01T18:41:33.209Z,9.25
2018-11-01T18:44:01.298Z,9.24
2018-11-01T18:46:29.393Z,9.27
2018-11-01T18:48:57.463Z,9.26
2018-11-01T18:51:25.571Z,9.35
2018-11-01T18:53:53.702Z,9.31
2018-11-01T18:56:21.813Z,9.22
2018-11-01T18:58:49.926Z,9.19
2018-11-01T19:01:18.103Z,9.17
2018-11-01T19:03:46.198Z,9.18
2018-11-01T19:06:14.287Z,9.14
2018-11-01T19:08:42.439Z,9.10
2018-11-01T19:11:10.576Z,9.09
2018-11-01T19:13:38.670Z,9.04
2018-11-01T19:25:20.681Z,8.85
2018-11-01T20:10:10.671Z,8.31
2018-11-01T20:12:45.142Z,8.32
2018-11-01T20:15:13.250Z,8.30
2018-11-01T20:17:41.413Z,8.23
2018-11-01T20:20:10.988Z,8.28
2018-11-01T20:22:46.465Z,8.28
2018-11-01T20:25:14.746Z,8.24
2018-11-01T21:22:30.927Z,7.75
2018-11-01T21:25:04.656Z,7.76
2018-11-01T22:22:15.094Z,7.55
2018-11-01T23:22:17.671Z,7.60
2018-11-01T23:27:38.466Z,7.51
2018-11-01T23:30:06.741Z,7.34
2018-11-01T23:32:35.678Z,7.44
2018-11-01T23:35:03.839Z,7.34
2018-11-01T23:37:37.338Z,7.29
2018-11-01T23:40:10.982Z,7.28
2018-11-01T23:42:44.512Z,7.39
2018-11-01T23:45:17.987Z,7.34
2018-11-01T23:47:51.351Z,7.37
2018-11-01T23:50:20.931Z,7.35
2018-11-01T23:52:52.268Z,7.45
2018-11-01T23:55:20.382Z,7.34
2018-11-01T23:57:48.455Z,7.43
